Time;durP1;ratioP1;P1;durP2;ratioP2;P2;SDS_P1;SDS_P2;PMS_P1;PMS_P2;Temp;Humidity;BMP_temperature;BMP_pressure;BME280_temperature;BME280_humidity;BME280_pressure;Samples;Min_cycle;Max_cycle;Signal;HPM_P1;HPM_P2
2022/12/02 00:00:45;;;;;;;;;;;3.90;99.90;;;;;;5018018;28;19999;-81
2022/12/02 00:03:12;;;;;;;;;;;3.90;99.90;;;;;;5030595;28;20023;-80
2022/12/02 00:05:38;;;;;;;;;;;3.80;99.90;;;;;;5016659;28;19917;-82
2022/12/02 00:08:14;;;;;;;;;;;3.90;99.90;;;;;;5015552;28;20434;-80
2022/12/02 00:10:42;;;;;;;;;;;3.90;99.90;;;;;;5018872;28;19917;-84
2022/12/02 00:13:17;;;;;;;;;;;3.90;99.90;;;;;;5020554;28;19924;-81
2022/12/02 00:15:44;;;;;;;;;;;3.80;99.90;;;;;;5013046;28;19917;-81
2022/12/02 00:18:10;;;;;;;;;;;3.90;99.90;;;;;;5022408;28;20384;-80
2022/12/02 00:20:36;;;;;;;;;;;3.80;99.90;;;;;;5016140;28;20004;-80
2022/12/02 00:23:02;;;;;;;;;;;3.80;99.90;;;;;;5020165;28;20059;-80
2022/12/02 00:25:28;;;;;;;;;;;3.80;99.90;;;;;;5022073;28;20630;-80
2022/12/02 00:27:53;;;;;;;;;;;3.80;99.90;;;;;;5019119;28;19921;-80
2022/12/02 00:30:19;;;;;;;;;;;3.80;99.90;;;;;;5014836;28;20260;-80
2022/12/02 00:32:44;;;;;;;;;;;3.90;99.90;;;;;;5034426;28;19968;-81
2022/12/02 00:35:10;;;;;;;;;;;3.80;99.90;;;;;;5020229;28;19921;-83
2022/12/02 00:37:35;;;;;;;;;;;3.80;99.90;;;;;;4998529;28;19925;-80
2022/12/02 00:40:01;;;;;;;;;;;3.80;99.90;;;;;;5018321;28;20360;-81
2022/12/02 00:42:27;;;;;;;;;;;3.80;99.90;;;;;;5019349;28;20523;-80
2022/12/02 00:47:37;;;;;;;;;;;3.80;99.90;;;;;;5021110;28;19917;-81
2022/12/02 00:50:02;;;;;;;;;;;3.70;99.90;;;;;;4995771;28;20221;-80
2022/12/02 00:52:29;;;;;;;;;;;3.70;99.90;;;;;;5009943;28;19976;-81
2022/12/02 00:54:54;;;;;;;;;;;3.70;99.90;;;;;;5018185;28;20392;-81
2022/12/02 00:57:20;;;;;;;;;;;3.50;99.90;;;;;;5007080;28;19997;-80
2022/12/02 00:59:46;;;;;;;;;;;3.60;99.90;;;;;;5021502;28;19918;-82
2022/12/02 01:02:11;;;;;;;;;;;3.60;99.90;;;;;;5027903;28;19925;-79
2022/12/02 01:04:37;;;;;;;;;;;3.60;99.90;;;;;;5011321;28;19980;-80
2022/12/02 01:07:03;;;;;;;;;;;3.60;99.90;;;;;;5012423;28;20301;-80
2022/12/02 01:09:28;;;;;;;;;;;3.60;99.90;;;;;;5034636;28;20388;-80
2022/12/02 01:11:54;;;;;;;;;;;3.60;99.90;;;;;;5039926;28;19929;-80
2022/12/02 01:14:19;;;;;;;;;;;3.70;99.90;;;;;;5020235;28;19918;-80
2022/12/02 01:16:45;;;;;;;;;;;3.70;99.90;;;;;;5020363;28;19917;-80
2022/12/02 01:19:10;;;;;;;;;;;3.70;99.90;;;;;;5027221;28;19971;-81
2022/12/02 01:21:36;;;;;;;;;;;3.70;99.90;;;;;;5011808;28;19922;-82
2022/12/02 01:24:02;;;;;;;;;;;3.70;99.90;;;;;;5004013;28;19928;-80
2022/12/02 01:26:28;;;;;;;;;;;3.70;99.90;;;;;;5015432;28;20416;-81
2022/12/02 01:28:54;;;;;;;;;;;3.60;99.90;;;;;;5018389;28;19960;-80
2022/12/02 01:31:20;;;;;;;;;;;3.70;99.90;;;;;;4998068;28;19983;-81
2022/12/02 01:33:45;;;;;;;;;;;3.70;99.90;;;;;;5050406;28;19986;-80
2022/12/02 01:36:11;;;;;;;;;;;3.70;99.90;;;;;;5035310;28;19925;-80
2022/12/02 01:38:39;;;;;;;;;;;3.80;99.90;;;;;;5030344;28;19934;-80
2022/12/02 01:41:11;;;;;;;;;;;3.70;99.90;;;;;;5017645;28;20311;-80
2022/12/02 01:43:37;;;;;;;;;;;3.80;99.90;;;;;;5015535;28;19921;-80
2022/12/02 01:46:10;;;;;;;;;;;3.80;99.90;;;;;;5017887;28;19922;-82
2022/12/02 01:48:36;;;;;;;;;;;3.70;99.90;;;;;;5022281;28;20259;-80
2022/12/02 01:51:03;;;;;;;;;;;3.70;99.90;;;;;;5007757;28;20317;-81
2022/12/02 01:53:29;;;;;;;;;;;3.70;99.90;;;;;;5021960;28;19918;-81
2022/12/02 01:55:54;;;;;;;;;;;3.60;99.90;;;;;;5018376;28;19921;-80
2022/12/02 01:58:23;;;;;;;;;;;3.70;99.90;;;;;;5023991;28;19982;-80
2022/12/02 02:00:48;;;;;;;;;;;3.60;99.90;;;;;;5020852;28;19917;-80
2022/12/02 02:03:14;;;;;;;;;;;3.60;99.90;;;;;;5021851;28;19918;-80
2022/12/02 02:05:40;;;;;;;;;;;3.60;99.90;;;;;;5020790;28;20359;-81
2022/12/02 02:08:15;;;;;;;;;;;3.50;99.90;;;;;;5027625;28;20001;-80
2022/12/02 02:10:42;;;;;;;;;;;3.50;99.90;;;;;;5000289;28;19983;-83
2022/12/02 02:13:09;;;;;;;;;;;3.40;99.90;;;;;;5018746;28;20233;-80
2022/12/02 02:15:37;;;;;;;;;;;3.40;99.90;;;;;;5018551;28;19917;-80
2022/12/02 02:18:03;;;;;;;;;;;3.30;99.90;;;;;;5019263;28;19929;-81
2022/12/02 02:20:28;;;;;;;;;;;3.30;99.90;;;;;;5017101;28;19929;-80
2022/12/02 02:23:11;;;;;;;;;;;3.30;99.90;;;;;;5009182;28;19928;-80
2022/12/02 02:25:38;;;;;;;;;;;3.20;99.90;;;;;;5001074;28;19921;-79
2022/12/02 02:28:04;;;;;;;;;;;3.20;99.90;;;;;;5019551;28;19928;-80
2022/12/02 02:30:31;;;;;;;;;;;3.20;99.90;;;;;;5021269;28;20280;-81
2022/12/02 02:32:57;;;;;;;;;;;3.20;99.90;;;;;;5009304;28;19917;-83
2022/12/02 02:35:23;;;;;;;;;;;3.10;99.90;;;;;;5005471;28;19921;-80
2022/12/02 02:37:49;;;;;;;;;;;3.10;99.90;;;;;;5024000;28;20290;-81
2022/12/02 02:40:16;;;;;;;;;;;3.20;99.90;;;;;;5007505;28;19918;-80
2022/12/02 02:42:43;;;;;;;;;;;3.10;99.90;;;;;;5016716;28;20268;-80
2022/12/02 02:45:08;;;;;;;;;;;3.10;99.90;;;;;;5024705;28;19944;-80
2022/12/02 02:47:34;;;;;;;;;;;3.10;99.90;;;;;;5029432;28;19921;-80
2022/12/02 02:50:00;;;;;;;;;;;3.10;99.90;;;;;;5037145;28;20320;-80
2022/12/02 02:52:25;;;;;;;;;;;3.10;99.90;;;;;;5024709;28;19931;-80
2022/12/02 02:54:51;;;;;;;;;;;3.10;99.90;;;;;;5024385;28;19928;-80
2022/12/02 02:57:20;;;;;;;;;;;3.10;99.90;;;;;;5026157;28;20348;-82
2022/12/02 02:59:47;;;;;;;;;;;3.10;99.90;;;;;;5028531;28;19917;-81
2022/12/02 03:02:13;;;;;;;;;;;3.20;99.90;;;;;;5023636;28;19975;-82
2022/12/02 03:04:40;;;;;;;;;;;3.20;99.90;;;;;;5022889;28;19960;-81
2022/12/02 03:07:05;;;;;;;;;;;3.20;99.90;;;;;;5019682;28;19917;-80
2022/12/02 03:09:31;;;;;;;;;;;3.20;99.90;;;;;;5004669;28;19944;-80
2022/12/02 03:11:57;;;;;;;;;;;3.20;99.90;;;;;;5022909;28;20414;-80
2022/12/02 03:14:23;;;;;;;;;;;3.20;99.90;;;;;;5020624;28;19920;-80
2022/12/02 03:16:49;;;;;;;;;;;3.10;99.90;;;;;;5016802;28;19973;-80
2022/12/02 03:19:15;;;;;;;;;;;3.10;99.90;;;;;;5008096;28;20313;-80
2022/12/02 03:21:41;;;;;;;;;;;3.00;99.90;;;;;;5017326;28;19956;-81
2022/12/02 03:24:07;;;;;;;;;;;3.00;99.90;;;;;;5033624;28;19963;-81
2022/12/02 03:26:33;;;;;;;;;;;3.00;99.90;;;;;;5024293;28;20012;-81
2022/12/02 03:28:59;;;;;;;;;;;3.00;99.90;;;;;;5022821;28;19925;-82
2022/12/02 03:31:26;;;;;;;;;;;3.00;99.90;;;;;;5013659;28;19917;-80
2022/12/02 03:33:53;;;;;;;;;;;3.00;99.90;;;;;;4999509;28;19964;-80
2022/12/02 03:36:19;;;;;;;;;;;3.00;99.90;;;;;;5038803;28;19921;-80
2022/12/02 03:38:52;;;;;;;;;;;3.00;99.90;;;;;;5001205;28;19960;-80
2022/12/02 03:41:20;;;;;;;;;;;3.00;99.90;;;;;;5027857;28;20365;-81
2022/12/02 03:43:46;;;;;;;;;;;3.00;99.90;;;;;;5014902;28;19943;-80
2022/12/02 03:46:14;;;;;;;;;;;3.00;99.90;;;;;;4994968;28;19925;-80
2022/12/02 03:48:40;;;;;;;;;;;3.00;99.90;;;;;;5020323;28;20018;-81
2022/12/02 03:51:08;;;;;;;;;;;2.90;99.90;;;;;;5018615;28;20379;-80
2022/12/02 03:53:39;;;;;;;;;;;2.90;99.90;;;;;;4992628;28;19925;-80
2022/12/02 03:56:06;;;;;;;;;;;2.90;99.90;;;;;;5021965;28;19924;-80
2022/12/02 03:58:33;;;;;;;;;;;2.90;99.90;;;;;;5019275;28;19917;-81
2022/12/02 04:00:58;;;;;;;;;;;2.90;99.90;;;;;;5018194;28;19917;-80
2022/12/02 04:03:24;;;;;;;;;;;2.90;99.90;;;;;;5019173;28;19975;-85
2022/12/02 04:05:50;;;;;;;;;;;2.90;99.90;;;;;;5010040;28;20247;-80
2022/12/02 04:08:21;;;;;;;;;;;2.80;99.90;;;;;;5015325;28;19925;-83
2022/12/02 04:10:47;;;;;;;;;;;2.80;99.90;;;;;;5020569;28;19917;-80
2022/12/02 04:13:13;;;;;;;;;;;2.90;99.90;;;;;;5016735;28;19976;-81
2022/12/02 04:15:38;;;;;;;;;;;2.80;99.90;;;;;;5018716;28;20018;-83
2022/12/02 04:18:04;;;;;;;;;;;2.80;99.90;;;;;;5008981;28;19917;-81
2022/12/02 04:20:30;;;;;;;;;;;2.80;99.90;;;;;;5001144;28;20007;-81
2022/12/02 04:22:55;;;;;;;;;;;2.70;99.90;;;;;;5019344;28;19918;-81
2022/12/02 04:25:21;;;;;;;;;;;2.70;99.90;;;;;;5022448;28;20313;-81
2022/12/02 04:27:46;;;;;;;;;;;2.70;99.90;;;;;;5021075;28;19917;-82
2022/12/02 04:30:12;;;;;;;;;;;2.70;99.90;;;;;;5028052;28;20252;-84
2022/12/02 04:32:38;;;;;;;;;;;2.70;99.90;;;;;;5010400;28;19917;-80
2022/12/02 04:35:03;;;;;;;;;;;2.80;99.90;;;;;;5028756;28;19924;-80
2022/12/02 04:37:29;;;;;;;;;;;2.70;99.90;;;;;;4984427;28;19956;-83
2022/12/02 04:39:55;;;;;;;;;;;2.70;99.90;;;;;;5023751;28;19936;-80
2022/12/02 04:42:21;;;;;;;;;;;2.70;99.90;;;;;;5023967;28;20007;-80
2022/12/02 04:44:46;;;;;;;;;;;2.80;99.90;;;;;;5026405;28;19916;-83
2022/12/02 04:47:12;;;;;;;;;;;2.70;99.90;;;;;;5017116;28;20703;-80
2022/12/02 04:49:38;;;;;;;;;;;2.70;99.90;;;;;;5018142;28;19925;-84
2022/12/02 04:52:03;;;;;;;;;;;2.70;99.90;;;;;;5026396;28;19923;-81
2022/12/02 04:54:29;;;;;;;;;;;2.70;99.90;;;;;;5022260;28;19961;-80
2022/12/02 04:56:54;;;;;;;;;;;2.70;99.90;;;;;;5044312;28;19963;-81
2022/12/02 04:59:20;;;;;;;;;;;2.70;99.90;;;;;;5011606;28;19917;-83
2022/12/02 05:01:51;;;;;;;;;;;2.60;99.90;;;;;;5023572;28;19976;-81
2022/12/02 05:04:17;;;;;;;;;;;2.70;99.90;;;;;;5021714;28;19921;-80
2022/12/02 05:06:43;;;;;;;;;;;2.60;99.90;;;;;;5023954;28;19921;-80
2022/12/02 05:09:15;;;;;;;;;;;2.70;99.90;;;;;;4993571;28;20403;-80
2022/12/02 05:11:53;;;;;;;;;;;2.60;99.90;;;;;;5013102;28;19921;-80
2022/12/02 05:14:18;;;;;;;;;;;2.60;99.90;;;;;;5007380;28;20246;-84
2022/12/02 05:16:44;;;;;;;;;;;2.70;99.90;;;;;;5024084;28;19917;-81
2022/12/02 05:19:10;;;;;;;;;;;2.60;99.90;;;;;;5019622;28;20040;-81
2022/12/02 05:21:35;;;;;;;;;;;2.60;99.90;;;;;;4997055;28;20307;-80
2022/12/02 05:24:07;;;;;;;;;;;2.50;99.90;;;;;;5026680;28;20264;-82
2022/12/02 05:26:34;;;;;;;;;;;2.60;99.90;;;;;;5011973;28;19923;-81
2022/12/02 05:29:00;;;;;;;;;;;2.60;99.90;;;;;;5008728;28;19917;-81
2022/12/02 05:31:25;;;;;;;;;;;2.50;99.90;;;;;;5037337;28;19952;-80
2022/12/02 05:33:51;;;;;;;;;;;2.60;99.90;;;;;;5007183;28;19959;-80
2022/12/02 05:36:16;;;;;;;;;;;2.60;99.90;;;;;;5021259;28;20462;-80
2022/12/02 05:38:42;;;;;;;;;;;2.60;99.90;;;;;;5025649;28;19925;-84
2022/12/02 05:41:08;;;;;;;;;;;2.60;99.90;;;;;;5005187;28;19967;-80
2022/12/02 05:43:37;;;;;;;;;;;2.60;99.90;;;;;;5023744;28;19924;-80
2022/12/02 05:46:09;;;;;;;;;;;2.60;99.90;;;;;;5020226;28;19982;-85
2022/12/02 05:48:35;;;;;;;;;;;2.50;99.90;;;;;;5015423;28;20252;-81
2022/12/02 05:51:01;;;;;;;;;;;2.50;99.90;;;;;;5006129;28;20016;-80
2022/12/02 05:53:27;;;;;;;;;;;2.50;99.90;;;;;;5024442;28;19936;-80
2022/12/02 05:55:53;;;;;;;;;;;2.50;99.90;;;;;;5019724;28;20390;-81
2022/12/02 05:58:19;;;;;;;;;;;2.50;99.90;;;;;;5020723;28;19917;-80
2022/12/02 06:00:53;;;;;;;;;;;2.50;99.90;;;;;;5032061;28;19928;-84
2022/12/02 06:03:19;;;;;;;;;;;2.40;99.90;;;;;;5009652;28;19925;-82
2022/12/02 06:05:45;;;;;;;;;;;2.50;99.90;;;;;;5024425;28;20004;-81
2022/12/02 06:08:18;;;;;;;;;;;2.50;99.90;;;;;;5035035;28;20306;-82
2022/12/02 06:10:48;;;;;;;;;;;2.40;99.90;;;;;;5015577;28;20319;-82
2022/12/02 06:13:22;;;;;;;;;;;2.40;99.90;;;;;;5016455;28;19944;-80
2022/12/02 06:15:48;;;;;;;;;;;2.40;99.90;;;;;;5025851;28;19956;-79
2022/12/02 06:18:21;;;;;;;;;;;2.50;99.90;;;;;;5017615;28;19992;-79
2022/12/02 06:20:54;;;;;;;;;;;2.40;99.90;;;;;;5024345;28;19971;-81
2022/12/02 06:23:20;;;;;;;;;;;2.40;99.90;;;;;;5021467;28;19917;-79
2022/12/02 06:25:47;;;;;;;;;;;2.50;99.90;;;;;;5022008;28;19924;-79
2022/12/02 06:28:15;;;;;;;;;;;2.50;99.90;;;;;;5005156;28;19925;-79
2022/12/02 06:30:41;;;;;;;;;;;2.40;99.90;;;;;;5005378;28;19921;-79
2022/12/02 06:33:13;;;;;;;;;;;2.40;99.90;;;;;;5023535;28;19988;-79
2022/12/02 06:35:38;;;;;;;;;;;2.40;99.90;;;;;;5019891;28;20268;-80
2022/12/02 06:38:11;;;;;;;;;;;2.40;99.90;;;;;;5013795;28;19917;-80
2022/12/02 06:40:38;;;;;;;;;;;2.40;99.90;;;;;;5024202;28;20348;-79
2022/12/02 06:43:11;;;;;;;;;;;2.40;99.90;;;;;;5025323;28;19947;-80
2022/12/02 06:45:36;;;;;;;;;;;2.40;99.90;;;;;;5017250;28;19917;-82
2022/12/02 06:48:04;;;;;;;;;;;2.50;99.90;;;;;;5015752;28;19921;-84
2022/12/02 06:50:29;;;;;;;;;;;2.30;99.90;;;;;;5018896;28;19935;-79
2022/12/02 06:53:00;;;;;;;;;;;2.50;99.90;;;;;;5023161;28;20341;-78
2022/12/02 06:55:31;;;;;;;;;;;2.30;99.90;;;;;;5031566;28;19928;-79
2022/12/02 06:58:09;;;;;;;;;;;2.30;99.90;;;;;;5017831;28;19921;-80
2022/12/02 07:00:38;;;;;;;;;;;2.30;99.90;;;;;;5032022;28;19923;-82
2022/12/02 07:03:08;;;;;;;;;;;2.30;99.90;;;;;;5016259;28;20332;-80
2022/12/02 07:05:33;;;;;;;;;;;2.30;99.90;;;;;;5002565;28;20000;-79
2022/12/02 07:07:59;;;;;;;;;;;2.30;99.90;;;;;;5025489;28;20018;-79
2022/12/02 07:10:28;;;;;;;;;;;2.30;99.90;;;;;;4997524;28;20259;-80
2022/12/02 07:12:55;;;;;;;;;;;2.30;99.90;;;;;;5020136;28;19921;-79
2022/12/02 07:15:34;;;;;;;;;;;2.30;99.90;;;;;;4999196;28;19940;-80
2022/12/02 07:18:08;;;;;;;;;;;2.30;99.90;;;;;;5019092;28;20308;-82
2022/12/02 07:20:34;;;;;;;;;;;2.30;99.90;;;;;;5016839;28;19929;-81
2022/12/02 07:23:18;;;;;;;;;;;2.30;99.90;;;;;;5016546;28;20016;-80
2022/12/02 07:25:45;;;;;;;;;;;2.30;99.90;;;;;;5022660;28;19924;-80
2022/12/02 07:28:14;;;;;;;;;;;2.30;99.90;;;;;;5025606;28;20040;-80
2022/12/02 07:30:40;;;;;;;;;;;2.30;99.90;;;;;;5017251;28;19976;-82
2022/12/02 07:33:06;;;;;;;;;;;2.30;99.90;;;;;;5014242;28;20352;-80
2022/12/02 07:35:31;;;;;;;;;;;2.30;99.90;;;;;;5017133;28;19924;-79
2022/12/02 07:37:57;;;;;;;;;;;2.30;99.90;;;;;;5017613;28;20275;-79
2022/12/02 07:40:23;;;;;;;;;;;2.30;99.90;;;;;;4985531;28;19921;-79
2022/12/02 07:42:48;;;;;;;;;;;2.30;99.90;;;;;;5016872;28;19929;-84
2022/12/02 07:45:15;;;;;;;;;;;2.30;99.90;;;;;;4991507;28;20363;-81
2022/12/02 07:47:41;;;;;;;;;;;2.30;99.90;;;;;;5022834;28;19970;-79
2022/12/02 07:50:08;;;;;;;;;;;2.40;99.90;;;;;;5002548;28;20344;-79
2022/12/02 07:52:34;;;;;;;;;;;2.40;99.90;;;;;;5022024;28;19975;-79
2022/12/02 07:55:00;;;;;;;;;;;2.40;99.90;;;;;;5012495;28;20395;-80
2022/12/02 07:57:26;;;;;;;;;;;2.50;99.90;;;;;;5018891;28;19921;-79
2022/12/02 07:59:51;;;;;;;;;;;2.40;99.90;;;;;;5034021;28;19924;-80
2022/12/02 08:02:17;;;;;;;;;;;2.40;99.90;;;;;;5031444;28;19917;-80
2022/12/02 08:04:42;;;;;;;;;;;2.60;99.90;;;;;;5022390;28;19929;-79
2022/12/02 08:07:08;;;;;;;;;;;2.50;99.90;;;;;;5032824;28;19925;-80
2022/12/02 08:09:34;;;;;;;;;;;2.50;99.90;;;;;;5031207;28;19921;-81
2022/12/02 08:11:59;;;;;;;;;;;2.50;99.90;;;;;;5015042;28;19920;-80
2022/12/02 08:14:25;;;;;;;;;;;2.50;99.90;;;;;;5032693;28;19917;-81
2022/12/02 08:16:50;;;;;;;;;;;2.50;99.90;;;;;;5012665;28;19937;-80
2022/12/02 08:19:16;;;;;;;;;;;2.50;99.90;;;;;;5015279;28;19925;-81
2022/12/02 08:21:42;;;;;;;;;;;2.50;99.90;;;;;;5023091;28;20303;-81
2022/12/02 08:24:07;;;;;;;;;;;2.50;99.90;;;;;;5032868;28;20341;-79
2022/12/02 08:26:33;;;;;;;;;;;2.40;99.90;;;;;;5011735;28;19924;-79
2022/12/02 08:28:58;;;;;;;;;;;2.50;99.90;;;;;;5013456;28;20272;-79
2022/12/02 08:31:24;;;;;;;;;;;2.50;99.90;;;;;;5018974;28;19929;-80
2022/12/02 08:33:50;;;;;;;;;;;2.50;99.90;;;;;;5019869;28;20043;-80
2022/12/02 08:36:16;;;;;;;;;;;2.50;99.90;;;;;;5017129;28;19918;-79
2022/12/02 08:38:42;;;;;;;;;;;2.50;99.90;;;;;;5033480;28;19924;-78
2022/12/02 08:41:08;;;;;;;;;;;2.50;99.90;;;;;;5017601;28;19936;-81
2022/12/02 08:43:33;;;;;;;;;;;2.50;99.90;;;;;;5016429;28;20842;-78
2022/12/02 08:45:59;;;;;;;;;;;2.50;99.90;;;;;;5022091;28;19936;-79
2022/12/02 08:48:24;;;;;;;;;;;2.60;99.90;;;;;;5019309;28;19924;-79
2022/12/02 08:50:50;;;;;;;;;;;2.60;99.90;;;;;;5009514;28;19917;-80
2022/12/02 08:53:17;;;;;;;;;;;2.60;99.90;;;;;;5016044;28;20754;-79
2022/12/02 08:55:42;;;;;;;;;;;2.60;99.90;;;;;;5015596;28;19918;-78
2022/12/02 08:58:08;;;;;;;;;;;2.60;99.90;;;;;;5028399;28;20264;-79
2022/12/02 09:00:34;;;;;;;;;;;2.50;99.90;;;;;;5021860;28;19921;-81
2022/12/02 09:03:00;;;;;;;;;;;2.60;99.90;;;;;;5019749;28;19987;-80
2022/12/02 09:05:25;;;;;;;;;;;2.60;99.90;;;;;;5018009;28;19932;-80
2022/12/02 09:07:51;;;;;;;;;;;2.70;99.90;;;;;;4997844;28;20253;-84
2022/12/02 09:10:17;;;;;;;;;;;2.70;99.90;;;;;;5024390;28;19959;-79
2022/12/02 09:12:42;;;;;;;;;;;2.70;99.90;;;;;;5018029;28;19917;-80
2022/12/02 09:15:08;;;;;;;;;;;2.70;99.90;;;;;;5016798;28;20270;-80
2022/12/02 09:17:34;;;;;;;;;;;2.70;99.90;;;;;;4995870;28;19920;-80
2022/12/02 09:19:59;;;;;;;;;;;2.70;99.90;;;;;;5040778;28;20303;-80
2022/12/02 09:22:25;;;;;;;;;;;2.80;99.90;;;;;;5025914;28;20008;-79
2022/12/02 09:24:50;;;;;;;;;;;2.80;99.90;;;;;;5016998;28;19917;-80
2022/12/02 09:27:16;;;;;;;;;;;2.80;99.90;;;;;;5015617;28;19924;-81
2022/12/02 09:29:41;;;;;;;;;;;2.80;99.90;;;;;;5022315;28;19925;-82
2022/12/02 09:32:07;;;;;;;;;;;2.80;99.90;;;;;;5020106;28;19917;-80
2022/12/02 09:34:33;;;;;;;;;;;2.80;99.90;;;;;;5007615;28;20201;-81
2022/12/02 09:36:58;;;;;;;;;;;2.80;99.90;;;;;;5016568;28;19946;-79
2022/12/02 09:39:24;;;;;;;;;;;2.70;99.90;;;;;;5018742;28;19921;-78
2022/12/02 09:41:49;;;;;;;;;;;2.80;99.90;;;;;;5018371;28;19967;-80
2022/12/02 09:44:15;;;;;;;;;;;2.80;99.90;;;;;;5035025;28;20379;-80
2022/12/02 09:46:41;;;;;;;;;;;2.90;99.90;;;;;;5018189;28;19944;-80
2022/12/02 09:49:06;;;;;;;;;;;2.90;99.90;;;;;;5006202;28;19917;-78
2022/12/02 09:51:32;;;;;;;;;;;2.90;99.90;;;;;;5019911;28;19984;-79
2022/12/02 09:53:58;;;;;;;;;;;2.90;99.90;;;;;;5017403;28;19929;-80
2022/12/02 09:56:24;;;;;;;;;;;3.00;99.90;;;;;;5015247;28;19963;-79
2022/12/02 09:58:50;;;;;;;;;;;3.00;99.90;;;;;;5016616;28;19918;-81
2022/12/02 10:01:16;;;;;;;;;;;3.00;99.90;;;;;;5032532;28;19967;-77
2022/12/02 10:03:43;;;;;;;;;;;3.00;99.90;;;;;;5022054;28;19929;-81
2022/12/02 10:06:25;;;;;;;;;;;3.00;99.90;;;;;;5033119;28;19921;-79
2022/12/02 10:08:51;;;;;;;;;;;2.90;99.90;;;;;;5018194;28;19917;-79
2022/12/02 10:11:28;;;;;;;;;;;2.90;99.90;;;;;;5033688;28;19995;-79
2022/12/02 10:13:54;;;;;;;;;;;3.00;99.90;;;;;;5019139;28;19928;-80
2022/12/02 10:16:20;;;;;;;;;;;3.00;99.90;;;;;;4997736;28;19940;-79
2022/12/02 10:18:46;;;;;;;;;;;2.90;99.90;;;;;;5023054;28;20365;-78
2022/12/02 10:21:12;;;;;;;;;;;3.00;99.90;;;;;;5027723;28;20319;-79
2022/12/02 10:23:52;;;;;;;;;;;3.00;99.90;;;;;;5012738;28;19921;-83
2022/12/02 10:26:18;;;;;;;;;;;3.00;99.90;;;;;;5027582;28;20391;-83
2022/12/02 10:28:56;;;;;;;;;;;3.00;99.90;;;;;;5028317;28;19967;-79
2022/12/02 10:31:22;;;;;;;;;;;2.90;99.90;;;;;;5037460;28;19917;-80
2022/12/02 10:33:52;;;;;;;;;;;2.90;99.90;;;;;;5016395;28;19917;-79
2022/12/02 10:36:36;;;;;;;;;;;2.90;99.90;;;;;;5020967;28;19921;-79
2022/12/02 10:39:15;;;;;;;;;;;2.80;99.90;;;;;;5017551;28;19944;-80
2022/12/02 10:41:40;;;;;;;;;;;2.80;99.90;;;;;;5017243;28;19957;-80
2022/12/02 10:44:17;;;;;;;;;;;2.80;99.90;;;;;;5033542;28;19967;-80
2022/12/02 10:46:43;;;;;;;;;;;2.90;99.90;;;;;;5033388;28;19917;-80
2022/12/02 10:49:14;;;;;;;;;;;2.90;99.90;;;;;;5036034;28;20000;-79
2022/12/02 10:51:40;;;;;;;;;;;2.90;99.90;;;;;;5019758;28;19972;-80
2022/12/02 10:54:10;;;;;;;;;;;2.90;99.90;;;;;;5025228;28;19929;-79
2022/12/02 10:56:35;;;;;;;;;;;2.90;99.90;;;;;;5004662;28;20015;-84
2022/12/02 10:59:01;;;;;;;;;;;2.90;99.90;;;;;;5034666;28;20357;-81
2022/12/02 11:01:27;;;;;;;;;;;2.90;99.90;;;;;;5019243;28;19953;-80
2022/12/02 11:03:54;;;;;;;;;;;2.90;99.90;;;;;;4999658;28;19921;-81
2022/12/02 11:06:20;;;;;;;;;;;2.90;99.90;;;;;;5032930;28;19932;-81
2022/12/02 11:08:47;;;;;;;;;;;2.90;99.90;;;;;;5018188;28;19969;-82
2022/12/02 11:11:34;;;;;;;;;;;2.90;99.90;;;;;;5019168;28;19925;-81
2022/12/02 11:14:01;;;;;;;;;;;2.80;99.90;;;;;;5036754;28;19923;-81
2022/12/02 11:16:29;;;;;;;;;;;2.80;99.90;;;;;;5016529;28;20212;-80
2022/12/02 11:19:05;;;;;;;;;;;2.70;99.90;;;;;;5017852;28;20381;-81
2022/12/02 11:21:33;;;;;;;;;;;2.80;99.90;;;;;;5013545;28;19933;-80
2022/12/02 11:24:37;;;;;;;;;;;2.80;99.90;;;;;;5019133;28;20012;-80
2022/12/02 11:27:03;;;;;;;;;;;2.70;99.90;;;;;;5020142;28;19953;-81
2022/12/02 11:29:47;;;;;;;;;;;2.70;99.90;;;;;;5018935;28;19960;-80
2022/12/02 11:32:25;;;;;;;;;;;2.70;99.90;;;;;;5012364;28;19921;-84
2022/12/02 11:34:55;;;;;;;;;;;2.70;99.90;;;;;;5031714;28;20089;-83
2022/12/02 11:37:34;;;;;;;;;;;2.60;99.90;;;;;;5023810;28;19929;-86
2022/12/02 11:40:09;;;;;;;;;;;2.70;99.90;;;;;;5015161;28;20408;-82
2022/12/02 11:42:36;;;;;;;;;;;2.70;99.90;;;;;;5017817;28;20043;-81
2022/12/02 11:45:10;;;;;;;;;;;2.70;99.90;;;;;;5017747;28;19918;-81
2022/12/02 11:47:36;;;;;;;;;;;2.70;99.90;;;;;;5019529;28;19956;-82
2022/12/02 11:50:28;;;;;;;;;;;2.60;99.90;;;;;;5025012;28;19960;-81
2022/12/02 11:52:56;;;;;;;;;;;2.70;99.90;;;;;;5020806;28;19936;-84
2022/12/02 11:55:22;;;;;;;;;;;2.70;99.90;;;;;;5037020;28;19918;-83
2022/12/02 11:57:49;;;;;;;;;;;2.80;99.90;;;;;;5014720;28;20384;-82
2022/12/02 12:00:29;;;;;;;;;;;2.70;99.90;;;;;;5038310;28;19916;-82
2022/12/02 12:03:08;;;;;;;;;;;2.70;99.90;;;;;;5036218;28;20047;-81
2022/12/02 12:05:34;;;;;;;;;;;2.70;99.90;;;;;;5017980;28;19925;-82
2022/12/02 12:08:00;;;;;;;;;;;2.80;99.90;;;;;;5005292;28;19918;-83
2022/12/02 12:10:34;;;;;;;;;;;2.70;99.90;;;;;;5022372;28;20363;-82
2022/12/02 12:13:21;;;;;;;;;;;2.70;99.90;;;;;;5019072;28;20390;-83
2022/12/02 12:15:46;;;;;;;;;;;2.70;99.90;;;;;;5023776;28;19971;-81
2022/12/02 12:18:32;;;;;;;;;;;2.70;99.90;;;;;;5031591;28;19921;-80
2022/12/02 12:20:57;;;;;;;;;;;2.80;99.90;;;;;;5022927;28;19917;-82
2022/12/02 12:23:30;;;;;;;;;;;2.70;99.90;;;;;;5011754;28;19971;-81
2022/12/02 12:25:56;;;;;;;;;;;2.70;99.90;;;;;;5013580;28;19933;-81
2022/12/02 12:28:29;;;;;;;;;;;2.50;99.90;;;;;;5012710;28;20411;-81
2022/12/02 12:31:18;;;;;;;;;;;2.70;99.90;;;;;;5017345;28;19917;-81
2022/12/02 12:33:45;;;;;;;;;;;2.70;99.90;;;;;;5031282;28;19921;-80
2022/12/02 12:36:11;;;;;;;;;;;2.60;99.90;;;;;;5042868;28;20020;-80
2022/12/02 12:38:37;;;;;;;;;;;2.70;99.90;;;;;;5008501;28;20011;-80
2022/12/02 12:41:02;;;;;;;;;;;2.80;99.90;;;;;;5046544;28;20296;-81
2022/12/02 12:43:28;;;;;;;;;;;2.80;99.90;;;;;;5044427;28;19923;-81
2022/12/02 12:45:53;;;;;;;;;;;2.70;99.90;;;;;;5055044;28;19920;-81
2022/12/02 12:48:19;;;;;;;;;;;2.70;99.90;;;;;;5002342;28;19921;-82
2022/12/02 12:50:46;;;;;;;;;;;2.70;99.90;;;;;;5018514;28;20364;-82
2022/12/02 12:53:32;;;;;;;;;;;2.70;99.90;;;;;;4992039;28;19917;-82
2022/12/02 12:56:04;;;;;;;;;;;2.70;99.90;;;;;;5023387;28;19944;-81
2022/12/02 12:58:46;;;;;;;;;;;2.70;99.90;;;;;;5021682;28;19972;-83
2022/12/02 13:01:18;;;;;;;;;;;2.80;99.90;;;;;;5022639;28;20011;-81
2022/12/02 13:03:44;;;;;;;;;;;2.70;99.90;;;;;;5020187;28;20134;-80
2022/12/02 13:06:10;;;;;;;;;;;2.70;99.90;;;;;;5020221;28;20364;-80
2022/12/02 13:08:36;;;;;;;;;;;2.90;99.90;;;;;;5027950;28;19943;-81
2022/12/02 13:11:20;;;;;;;;;;;2.70;99.90;;;;;;5019851;28;20275;-80
2022/12/02 13:13:46;;;;;;;;;;;2.70;99.90;;;;;;5024158;28;19926;-82
2022/12/02 13:16:11;;;;;;;;;;;2.70;99.90;;;;;;5020151;28;20244;-82
2022/12/02 13:19:04;;;;;;;;;;;2.70;99.90;;;;;;5020384;28;20420;-81
2022/12/02 13:21:36;;;;;;;;;;;2.70;99.90;;;;;;5040635;28;20375;-81
2022/12/02 13:24:03;;;;;;;;;;;2.70;99.90;;;;;;5015949;28;19939;-81
2022/12/02 13:26:28;;;;;;;;;;;2.70;99.90;;;;;;5017230;28;19966;-82
2022/12/02 13:28:54;;;;;;;;;;;2.70;99.90;;;;;;5035677;28;20279;-82
2022/12/02 13:31:19;;;;;;;;;;;2.70;99.90;;;;;;5035936;28;19963;-82
2022/12/02 13:33:45;;;;;;;;;;;2.70;99.90;;;;;;5050837;28;19917;-79
2022/12/02 13:36:11;;;;;;;;;;;2.60;99.90;;;;;;5016340;28;19930;-81
2022/12/02 13:38:37;;;;;;;;;;;2.60;99.90;;;;;;5015746;28;19918;-80
2022/12/02 13:41:02;;;;;;;;;;;2.70;99.90;;;;;;5026835;28;19931;-81
2022/12/02 13:43:28;;;;;;;;;;;2.60;99.90;;;;;;5014664;28;19921;-81
2022/12/02 13:45:53;;;;;;;;;;;2.70;99.90;;;;;;5025095;28;19927;-81
2022/12/02 13:48:19;;;;;;;;;;;2.70;99.90;;;;;;5033924;28;19928;-81
2022/12/02 13:50:44;;;;;;;;;;;2.70;99.90;;;;;;5023446;28;19928;-82
2022/12/02 13:53:10;;;;;;;;;;;2.60;99.90;;;;;;5014314;28;20004;-81
2022/12/02 13:55:35;;;;;;;;;;;2.70;99.90;;;;;;5016394;28;19920;-81
2022/12/02 13:58:01;;;;;;;;;;;2.70;99.90;;;;;;5034839;28;19935;-81
2022/12/02 14:00:27;;;;;;;;;;;2.70;99.90;;;;;;5027474;28;19994;-81
2022/12/02 14:02:52;;;;;;;;;;;2.70;99.90;;;;;;5014300;28;19928;-80
2022/12/02 14:05:18;;;;;;;;;;;2.70;99.90;;;;;;5015434;28;19921;-81
2022/12/02 14:07:43;;;;;;;;;;;2.70;99.90;;;;;;5031389;28;19930;-81
2022/12/02 14:10:09;;;;;;;;;;;2.70;99.90;;;;;;5033733;28;20272;-81
2022/12/02 14:12:34;;;;;;;;;;;2.70;99.90;;;;;;5031888;28;19925;-82
2022/12/02 14:15:00;;;;;;;;;;;2.70;99.90;;;;;;5014423;28;19937;-82
2022/12/02 14:17:26;;;;;;;;;;;2.70;99.90;;;;;;5025788;28;19928;-82
2022/12/02 14:19:51;;;;;;;;;;;2.70;99.90;;;;;;5031230;28;19939;-81
2022/12/02 14:22:17;;;;;;;;;;;2.70;99.90;;;;;;5029990;28;19922;-81
2022/12/02 14:24:42;;;;;;;;;;;2.70;99.90;;;;;;5030365;28;19967;-81
2022/12/02 14:27:08;;;;;;;;;;;2.60;99.90;;;;;;5030152;28;20396;-81
2022/12/02 14:29:33;;;;;;;;;;;2.60;99.90;;;;;;5033407;28;19927;-81
2022/12/02 14:31:59;;;;;;;;;;;2.60;99.90;;;;;;5017346;28;20389;-81
2022/12/02 14:34:25;;;;;;;;;;;2.70;99.90;;;;;;5015182;28;19944;-80
2022/12/02 14:36:50;;;;;;;;;;;2.60;99.90;;;;;;5013914;28;19921;-81